Time;durP1;ratioP1;P1;durP2;ratioP2;P2;SDS_P1;SDS_P2;PMS_P1;PMS_P2;Temp;Humidity;BMP_temperature;BMP_pressure;BME280_temperature;BME280_humidity;BME280_pressure;Samples;Min_cycle;Max_cycle;Signal;HPM_P1;HPM_P2
2023/11/02 00:01:02;;;;;;;5.38;0.00;;;9.50;99.90;;;;;;4974830;28;20030;-73
2023/11/02 00:03:32;;;;;;;0.55;0.00;;;9.50;99.90;;;;;;4957439;28;20049;-73
2023/11/02 00:06:04;;;;;;;5.03;0.20;;;9.60;99.90;;;;;;4957743;28;20086;-73
2023/11/02 00:08:36;;;;;;;2.60;0.00;;;9.50;99.90;;;;;;4957755;28;20035;-73
2023/11/02 00:11:45;;;;;;;2.70;0.52;;;9.50;99.90;;;;;;4974836;28;20027;-73
2023/11/02 00:14:11;;;;;;;1.25;0.00;;;9.50;99.90;;;;;;4974707;28;20035;-73
2023/11/02 00:16:36;;;;;;;0.45;0.13;;;9.60;99.90;;;;;;4974615;28;20038;-73
2023/11/02 00:19:04;;;;;;;0.88;0.00;;;9.60;99.90;;;;;;4974712;28;20085;-73
2023/11/02 00:21:32;;;;;;;6.85;1.65;;;9.60;99.90;;;;;;4957159;28;20418;-73
2023/11/02 00:23:57;;;;;;;0.00;0.00;;;9.70;99.90;;;;;;4975081;28;20019;-73
2023/11/02 00:26:25;;;;;;;3.83;0.25;;;9.70;99.90;;;;;;4973593;28;20019;-73
2023/11/02 00:28:50;;;;;;;5.25;0.00;;;9.70;99.90;;;;;;4975269;28;20073;-73
2023/11/02 00:31:16;;;;;;;1.83;0.20;;;9.80;99.90;;;;;;4958016;28;20026;-73
2023/11/02 00:33:42;;;;;;;2.10;0.10;;;9.90;99.90;;;;;;4957446;28;20610;-73
2023/11/02 00:36:08;;;;;;;2.22;0.75;;;9.90;99.90;;;;;;4975536;28;20027;-73
2023/11/02 00:38:34;;;;;;;0.22;0.00;;;9.90;99.90;;;;;;4957620;28;20015;-73
2023/11/02 00:40:59;;;;;;;1.42;0.00;;;9.90;99.90;;;;;;4975143;28;20023;-73
2023/11/02 00:43:29;;;;;;;2.88;0.10;;;9.90;99.90;;;;;;4978019;28;20102;-73
2023/11/02 00:45:55;;;;;;;1.35;0.00;;;9.90;99.90;;;;;;4979111;28;20098;-73
2023/11/02 00:48:27;;;;;;;1.25;0.00;;;10.00;99.90;;;;;;4977018;28;20110;-73
2023/11/02 00:51:02;;;;;;;1.40;0.00;;;10.00;99.90;;;;;;4978327;28;20506;-73
2023/11/02 00:53:28;;;;;;;1.55;0.00;;;10.00;99.90;;;;;;4978480;28;20054;-73
2023/11/02 00:55:53;;;;;;;3.55;0.00;;;10.10;99.90;;;;;;4977177;28;20035;-73
2023/11/02 00:58:28;;;;;;;1.20;0.00;;;10.10;99.90;;;;;;4976976;28;20058;-73
2023/11/02 01:00:54;;;;;;;0.80;0.17;;;10.10;99.90;;;;;;4978328;28;20065;-73
2023/11/02 01:03:20;;;;;;;2.88;0.00;;;10.10;99.90;;;;;;4960661;28;20035;-73
2023/11/02 01:05:46;;;;;;;0.73;0.00;;;10.10;99.90;;;;;;4978182;28;20057;-73
2023/11/02 01:08:13;;;;;;;5.68;0.22;;;10.10;99.90;;;;;;4977883;28;20059;-73
2023/11/02 01:10:42;;;;;;;5.38;0.20;;;10.20;99.90;;;;;;4960233;28;20034;-73
2023/11/02 01:13:13;;;;;;;4.90;0.00;;;10.20;99.90;;;;;;4960490;28;20081;-73
2023/11/02 01:16:03;;;;;;;2.67;0.00;;;10.30;99.90;;;;;;4960736;28;20043;-73
2023/11/02 01:18:29;;;;;;;3.15;0.35;;;10.30;99.90;;;;;;4959918;28;20027;-73
2023/11/02 01:21:03;;;;;;;2.75;0.00;;;10.40;99.90;;;;;;4960549;28;20553;-73
2023/11/02 01:23:30;;;;;;;3.25;0.35;;;10.40;99.90;;;;;;4976210;28;20054;-73
2023/11/02 01:25:56;;;;;;;1.27;0.00;;;10.70;99.90;;;;;;4960016;28;20483;-73
2023/11/02 01:28:42;;;;;;;2.17;0.00;;;10.50;99.90;;;;;;4977175;28;20022;-73
2023/11/02 01:31:15;;;;;;;4.60;0.17;;;10.50;99.90;;;;;;4975886;28;20034;-73
2023/11/02 01:33:40;;;;;;;2.90;0.00;;;10.50;99.90;;;;;;4959894;28;20037;-73
2023/11/02 01:36:06;;;;;;;2.70;0.65;;;10.50;99.90;;;;;;4960207;28;20113;-73
2023/11/02 01:38:33;;;;;;;2.53;0.08;;;10.50;99.90;;;;;;4959565;28;20475;-73
2023/11/02 01:41:09;;;;;;;4.53;0.65;;;10.50;99.90;;;;;;4959660;28;20027;-73
2023/11/02 01:43:47;;;;;;;2.15;0.30;;;10.50;99.90;;;;;;4977150;28;20027;-73
2023/11/02 01:46:27;;;;;;;0.55;0.00;;;10.50;99.90;;;;;;4959538;28;20030;-73
2023/11/02 01:49:20;;;;;;;1.85;0.00;;;10.50;99.90;;;;;;4959288;28;20026;-73
2023/11/02 01:51:57;;;;;;;3.25;0.03;;;10.50;99.90;;;;;;4976708;28;20106;-73
2023/11/02 01:54:43;;;;;;;2.28;0.35;;;10.50;99.90;;;;;;4975990;28;20022;-73
2023/11/02 01:57:20;;;;;;;5.65;0.00;;;10.50;99.90;;;;;;4977069;28;20407;-73
2023/11/02 01:59:58;;;;;;;2.95;0.00;;;10.50;99.90;;;;;;4977186;28;20081;-73
2023/11/02 02:02:34;;;;;;;7.40;0.22;;;10.60;99.90;;;;;;4976731;28;20466;-73
2023/11/02 02:05:10;;;;;;;0.45;0.10;;;10.60;99.90;;;;;;4976519;28;20031;-73
2023/11/02 02:08:03;;;;;;;1.17;0.15;;;10.70;99.90;;;;;;4976734;28;20015;-73
2023/11/02 02:10:50;;;;;;;3.03;0.17;;;10.70;99.90;;;;;;4977186;28;20055;-72
2023/11/02 02:13:28;;;;;;;3.80;0.47;;;10.70;99.90;;;;;;4958955;28;20133;-72
2023/11/02 02:16:05;;;;;;;0.60;0.05;;;10.70;99.90;;;;;;4958925;28;20053;-73
2023/11/02 02:18:40;;;;;;;4.90;0.05;;;10.70;99.90;;;;;;4976455;28;20523;-73
2023/11/02 02:21:25;;;;;;;0.73;0.47;;;10.80;99.90;;;;;;4976284;28;20023;-73
2023/11/02 02:24:00;;;;;;;1.38;0.00;;;10.80;99.90;;;;;;4976481;28;20434;-73
2023/11/02 02:26:48;;;;;;;0.52;0.10;;;10.80;99.90;;;;;;4976247;28;20015;-73
2023/11/02 02:29:26;;;;;;;;;;;10.80;99.90;;;;;;4976668;28;20030;-73
2023/11/02 02:32:36;;;;;;;2.00;0.00;;;10.90;99.90;;;;;;4976076;28;19912;-73
2023/11/02 02:35:31;;;;;;;3.00;0.00;;;10.80;99.90;;;;;;4974067;28;20126;-73
2023/11/02 02:38:05;;;;;;;0.55;0.05;;;10.80;99.90;;;;;;4976213;28;20109;-73
2023/11/02 02:40:39;;;;;;;3.20;0.43;;;10.80;99.90;;;;;;4975792;28;20110;-73
2023/11/02 02:43:05;;;;;;;3.13;0.52;;;11.80;99.90;;;;;;4975799;28;20026;-73
2023/11/02 02:45:34;;;;;;;2.22;0.00;;;10.80;99.90;;;;;;4958662;28;20025;-73
2023/11/02 02:48:01;;;;;;;0.90;0.00;;;10.80;99.90;;;;;;4958484;28;20022;-73
2023/11/02 02:50:31;;;;;;;2.80;0.13;;;10.80;99.90;;;;;;4975782;28;20101;-73
2023/11/02 02:53:08;;;;;;;3.70;0.45;;;11.70;99.90;;;;;;4976057;28;20030;-73
2023/11/02 02:55:38;;;;;;;2.30;0.00;;;11.30;99.90;;;;;;4976371;28;20023;-73
2023/11/02 02:58:08;;;;;;;3.25;0.63;;;10.90;99.90;;;;;;4958475;28;20027;-73
2023/11/02 03:00:35;;;;;;;3.75;0.20;;;11.10;99.90;;;;;;4958278;28;20027;-73
2023/11/02 03:03:03;;;;;;;2.70;0.20;;;10.90;99.90;;;;;;4974477;28;20487;-73
2023/11/02 03:05:33;;;;;;;3.40;0.73;;;10.80;99.90;;;;;;4974786;28;20022;-72
2023/11/02 03:08:03;;;;;;;4.32;0.13;;;10.90;99.90;;;;;;4958106;28;20486;-72
2023/11/02 03:10:31;;;;;;;0.10;0.00;;;10.90;99.90;;;;;;4958269;28;20525;-72
2023/11/02 03:13:01;;;;;;;4.85;0.70;;;10.90;99.90;;;;;;4975688;28;20451;-73
2023/11/02 03:15:30;;;;;;;0.75;0.00;;;10.90;99.90;;;;;;4958136;28;20033;-73
2023/11/02 03:18:06;;;;;;;1.77;0.00;;;10.90;99.90;;;;;;4975539;28;20037;-73
2023/11/02 03:20:32;;;;;;;1.90;0.00;;;10.90;99.90;;;;;;4958042;28;20038;-72
2023/11/02 03:23:07;;;;;;;4.65;0.28;;;10.80;99.90;;;;;;4975784;28;20027;-73
2023/11/02 03:26:08;;;;;;;1.90;0.00;;;10.90;99.90;;;;;;4975616;28;20098;-73
2023/11/02 03:29:01;;;;;;;4.00;0.32;;;10.90;99.90;;;;;;4975474;28;20023;-73
2023/11/02 03:32:07;;;;;;;5.63;0.10;;;10.90;99.90;;;;;;4974222;28;20110;-73
2023/11/02 03:34:42;;;;;;;0.60;0.00;;;10.90;99.90;;;;;;4952133;28;20031;-73
2023/11/02 03:37:17;;;;;;;3.90;0.00;;;10.90;99.90;;;;;;4975865;28;20399;-73
2023/11/02 03:39:59;;;;;;;2.47;0.00;;;11.00;99.90;;;;;;4975862;28;20031;-73
2023/11/02 03:42:44;;;;;;;2.35;0.00;;;10.90;99.90;;;;;;4975609;28;20054;-73
2023/11/02 03:45:34;;;;;;;5.68;0.08;;;10.90;99.90;;;;;;4975156;28;20019;-73
2023/11/02 03:58:32;;;;;;;1.75;0.47;;;10.90;99.90;;;;;;4974881;28;20030;-73
2023/11/02 04:01:10;;;;;;;0.73;0.00;;;11.00;99.90;;;;;;4974898;28;20031;-73
2023/11/02 04:03:40;;;;;;;3.15;0.10;;;11.00;99.90;;;;;;4957859;28;20443;-72
2023/11/02 04:06:10;;;;;;;0.73;0.00;;;11.00;99.90;;;;;;4957794;28;20486;-72
2023/11/02 04:08:39;;;;;;;4.03;0.43;;;11.00;99.90;;;;;;4974800;28;20110;-72
2023/11/02 04:11:30;;;;;;;2.58;0.00;;;11.00;99.90;;;;;;4957454;28;20026;-72
2023/11/02 04:14:17;;;;;;;2.05;0.10;;;11.00;99.90;;;;;;4975417;28;20043;-72
2023/11/02 04:16:42;;;;;;;0.10;0.00;;;11.00;99.90;;;;;;4975597;28;20041;-72
2023/11/02 04:19:08;;;;;;;4.47;0.63;;;11.10;99.90;;;;;;4978662;28;20394;-72
2023/11/02 04:21:34;;;;;;;2.13;0.32;;;11.10;99.90;;;;;;4978681;28;20410;-72
2023/11/02 04:24:00;;;;;;;2.28;0.00;;;11.10;99.90;;;;;;4978642;28;20061;-72
2023/11/02 04:26:28;;;;;;;3.20;0.03;;;11.10;99.90;;;;;;4978333;28;20050;-72
2023/11/02 04:28:54;;;;;;;2.00;0.00;;;11.10;99.90;;;;;;4961388;28;20023;-72
2023/11/02 04:31:20;;;;;;;1.02;0.00;;;11.10;99.90;;;;;;4978005;28;20038;-72
2023/11/02 04:33:45;;;;;;;2.03;0.00;;;11.10;99.90;;;;;;4978961;28;20390;-72
2023/11/02 04:36:11;;;;;;;2.50;0.00;;;11.10;99.90;;;;;;4960931;28;20015;-72
2023/11/02 04:38:37;;;;;;;4.93;0.17;;;11.10;99.90;;;;;;4977085;28;20400;-73
2023/11/02 04:41:05;;;;;;;5.03;0.55;;;11.10;99.90;;;;;;4960797;28;20094;-72
2023/11/02 04:43:31;;;;;;;4.55;0.00;;;11.20;99.90;;;;;;4978334;28;20034;-72
2023/11/02 04:45:57;;;;;;;3.42;0.00;;;11.10;99.90;;;;;;4978529;28;20023;-73
2023/11/02 04:48:22;;;;;;;2.63;0.00;;;11.20;99.90;;;;;;4978340;28;20394;-73
2023/11/02 04:50:55;;;;;;;7.38;0.55;;;11.20;99.90;;;;;;4978325;28;20030;-73
2023/11/02 04:53:22;;;;;;;1.25;0.08;;;11.20;99.90;;;;;;4978098;28;20110;-72
2023/11/02 04:55:50;;;;;;;0.52;0.00;;;12.00;99.90;;;;;;4977882;28;20026;-72
2023/11/02 04:58:19;;;;;;;6.38;0.55;;;11.20;99.90;;;;;;4960674;28;20390;-72
2023/11/02 05:00:45;;;;;;;3.00;0.00;;;11.20;99.90;;;;;;4978015;28;20022;-72
2023/11/02 05:03:10;;;;;;;5.07;0.00;;;11.20;99.90;;;;;;4977791;28;20023;-72
2023/11/02 05:05:36;;;;;;;2.28;0.10;;;11.20;99.90;;;;;;4978150;28;20095;-72
2023/11/02 05:08:02;;;;;;;2.17;0.00;;;11.20;99.90;;;;;;4977781;28;20590;-72
2023/11/02 05:10:28;;;;;;;0.82;0.00;;;11.20;99.90;;;;;;4960488;28;20033;-72
2023/11/02 05:12:54;;;;;;;1.67;0.17;;;11.30;99.90;;;;;;4977697;28;20494;-72
2023/11/02 05:15:19;;;;;;;3.30;0.00;;;13.20;99.90;;;;;;4978143;28;20034;-72
2023/11/02 05:17:45;;;;;;;1.38;0.00;;;11.20;99.90;;;;;;4977473;28;20023;-72
2023/11/02 05:20:11;;;;;;;1.20;0.28;;;11.20;99.90;;;;;;4977022;28;20037;-72
2023/11/02 05:22:37;;;;;;;3.20;0.00;;;11.20;99.90;;;;;;4977318;28;20019;-73
2023/11/02 05:25:03;;;;;;;1.25;0.00;;;11.60;99.90;;;;;;4960106;28;20029;-72
2023/11/02 05:27:29;;;;;;;2.67;0.13;;;11.30;99.90;;;;;;4960493;28;20023;-72
2023/11/02 05:29:55;;;;;;;1.08;0.00;;;11.30;99.90;;;;;;4958782;28;20027;-73
2023/11/02 05:32:20;;;;;;;2.13;0.00;;;11.30;99.90;;;;;;4960063;28;20026;-73
2023/11/02 05:34:46;;;;;;;0.28;0.00;;;11.30;99.90;;;;;;4975598;28;20037;-73
2023/11/02 05:37:12;;;;;;;0.98;0.25;;;11.20;99.90;;;;;;4976725;28;20034;-73
2023/11/02 05:39:38;;;;;;;3.88;0.35;;;11.20;99.90;;;;;;4960755;28;20067;-73
2023/11/02 05:42:03;;;;;;;2.60;0.00;;;11.20;99.90;;;;;;4959654;28;20055;-73
2023/11/02 05:44:29;;;;;;;1.25;0.00;;;11.10;99.90;;;;;;4959442;28;20482;-73
2023/11/02 05:46:55;;;;;;;0.47;0.00;;;11.00;99.90;;;;;;4976579;28;20025;-73
2023/11/02 05:49:21;;;;;;;1.35;0.00;;;10.90;99.90;;;;;;4976598;28;20031;-73
2023/11/02 05:51:47;;;;;;;0.30;0.00;;;10.80;99.90;;;;;;4976587;28;20086;-73
2023/11/02 05:54:12;;;;;;;1.15;0.52;;;10.70;99.90;;;;;;4976823;28;20029;-72
2023/11/02 05:56:38;;;;;;;4.30;0.20;;;10.60;99.90;;;;;;4959015;28;20035;-72
2023/11/02 05:59:06;;;;;;;1.33;0.05;;;11.40;99.90;;;;;;4976689;28;20369;-73
2023/11/02 06:01:31;;;;;;;1.10;0.13;;;10.50;99.90;;;;;;4976275;28;20031;-72
2023/11/02 06:03:58;;;;;;;3.65;0.00;;;10.40;99.90;;;;;;4958945;28;20552;-72
2023/11/02 06:06:25;;;;;;;3.22;0.00;;;10.40;99.90;;;;;;4976688;28;20019;-72
2023/11/02 06:08:50;;;;;;;2.95;0.00;;;10.40;99.90;;;;;;4976092;28;20026;-72
2023/11/02 06:11:16;;;;;;;2.13;0.10;;;10.40;99.90;;;;;;4958677;28;20162;-73
2023/11/02 06:13:42;;;;;;;5.53;0.00;;;10.60;99.90;;;;;;4975957;28;20034;-72
2023/11/02 06:16:09;;;;;;;2.28;0.00;;;10.30;99.90;;;;;;4975912;28;20106;-72
2023/11/02 06:18:34;;;;;;;3.05;0.50;;;10.30;99.90;;;;;;4976340;28;20033;-72
2023/11/02 06:21:00;;;;;;;0.65;0.00;;;10.30;99.90;;;;;;4975897;28;20038;-72
2023/11/02 06:23:26;;;;;;;2.10;0.00;;;10.30;99.90;;;;;;4974682;28;20389;-72
2023/11/02 06:25:51;;;;;;;2.65;0.00;;;10.40;99.90;;;;;;4976355;28;20031;-72
2023/11/02 06:28:19;;;;;;;1.33;0.00;;;10.40;99.90;;;;;;4958437;28;20418;-72
2023/11/02 06:30:44;;;;;;;3.80;0.00;;;10.40;99.90;;;;;;4975759;28;20447;-72
2023/11/02 06:33:18;;;;;;;1.27;0.03;;;10.40;99.90;;;;;;4975776;28;20097;-72
2023/11/02 06:35:44;;;;;;;1.88;0.10;;;10.30;99.90;;;;;;4975942;28;20034;-72
2023/11/02 06:38:09;;;;;;;2.78;0.00;;;10.30;99.90;;;;;;4975474;28;20502;-73
2023/11/02 06:40:35;;;;;;;6.10;0.32;;;10.40;99.90;;;;;;4975288;28;20026;-72
2023/11/02 06:43:01;;;;;;;2.30;0.10;;;10.30;99.90;;;;;;4975559;28;20031;-72
2023/11/02 06:45:26;;;;;;;3.88;1.02;;;10.30;99.90;;;;;;4976030;28;20026;-72
2023/11/02 06:47:52;;;;;;;2.22;0.13;;;10.30;99.90;;;;;;4958145;28;20545;-72
2023/11/02 06:50:18;;;;;;;1.92;0.17;;;10.40;99.90;;;;;;4975376;28;20034;-72
2023/11/02 06:52:44;;;;;;;3.55;0.05;;;10.40;99.90;;;;;;4975356;28;20034;-72
2023/11/02 06:55:10;;;;;;;2.50;0.00;;;10.40;99.90;;;;;;4958406;28;20030;-72
2023/11/02 06:57:36;;;;;;;2.97;0.00;;;10.50;99.90;;;;;;4957807;28;20019;-72
2023/11/02 07:00:05;;;;;;;1.30;0.38;;;10.50;99.90;;;;;;4975266;28;20037;-72
2023/11/02 07:02:31;;;;;;;0.08;0.00;;;10.50;99.90;;;;;;4975694;28;20482;-72
2023/11/02 07:04:58;;;;;;;0.80;0.00;;;10.50;99.90;;;;;;4958763;28;20470;-72
2023/11/02 07:07:24;;;;;;;1.27;0.00;;;10.60;99.90;;;;;;4974366;28;20483;-72
2023/11/02 07:09:51;;;;;;;2.83;0.00;;;10.60;99.90;;;;;;4975179;28;20082;-72
2023/11/02 07:12:17;;;;;;;0.65;0.00;;;10.70;99.90;;;;;;4975049;28;20058;-72
2023/11/02 07:14:43;;;;;;;1.95;0.00;;;10.70;99.90;;;;;;4975733;28;20501;-72
2023/11/02 07:17:09;;;;;;;0.20;0.10;;;10.70;99.90;;;;;;4957669;28;20023;-72
2023/11/02 07:19:34;;;;;;;0.30;0.25;;;11.30;99.90;;;;;;4974756;28;20382;-72
2023/11/02 07:22:00;;;;;;;0.65;0.00;;;10.80;99.90;;;;;;4975009;28;20030;-73
2023/11/02 07:24:27;;;;;;;2.85;0.10;;;10.80;99.90;;;;;;4957465;28;20133;-72
2023/11/02 07:26:53;;;;;;;1.40;0.00;;;10.90;99.90;;;;;;4975325;28;20027;-72
2023/11/02 07:29:18;;;;;;;0.00;0.00;;;10.90;99.90;;;;;;4974856;28;20052;-72
2023/11/02 07:31:45;;;;;;;0.05;0.00;;;10.90;99.90;;;;;;4975419;28;20031;-73
2023/11/02 07:34:14;;;;;;;0.43;0.00;;;11.00;99.90;;;;;;4974712;28;20046;-73
2023/11/02 07:36:39;;;;;;;;;;;11.00;99.90;;;;;;4958349;28;20043;-73
2023/11/02 07:39:05;;;;;;;0.70;0.00;;;11.10;99.90;;;;;;4974876;28;19953;-73
2023/11/02 07:41:30;;;;;;;1.23;0.10;;;13.00;99.90;;;;;;4974944;28;20086;-73
2023/11/02 07:43:56;;;;;;;2.75;0.15;;;11.20;99.90;;;;;;4975152;28;20062;-74
2023/11/02 07:46:21;;;;;;;0.28;0.00;;;11.30;99.90;;;;;;4957772;28;20044;-74
2023/11/02 07:48:48;;;;;;;1.15;0.00;;;11.30;99.90;;;;;;4975746;28;20122;-73
2023/11/02 07:51:14;;;;;;;0.10;0.00;;;11.30;99.90;;;;;;4958058;28;20089;-73
2023/11/02 07:53:40;;;;;;;1.55;0.00;;;12.60;99.90;;;;;;4978961;28;20023;-74
2023/11/02 07:56:08;;;;;;;0.10;0.00;;;12.70;99.90;;;;;;4961749;28;20037;-74
2023/11/02 07:58:35;;;;;;;0.80;0.00;;;11.50;99.90;;;;;;4961703;28;20018;-73
2023/11/02 08:01:01;;;;;;;0.10;0.00;;;11.60;99.90;;;;;;4961551;28;20027;-74
2023/11/02 08:03:27;;;;;;;2.53;0.00;;;11.60;99.90;;;;;;4978940;28;20037;-74
2023/11/02 08:05:52;;;;;;;0.38;0.15;;;11.60;99.90;;;;;;4961382;28;20533;-74
2023/11/02 08:08:18;;;;;;;0.65;0.20;;;11.60;99.90;;;;;;4962253;28;20489;-74
2023/11/02 08:10:44;;;;;;;1.50;0.00;;;11.60;99.90;;;;;;4977678;28;20109;-74
2023/11/02 08:13:09;;;;;;;2.60;0.00;;;11.60;99.90;;;;;;4978676;28;20098;-74
2023/11/02 08:15:35;;;;;;;0.82;0.03;;;11.60;99.90;;;;;;4979410;28;20038;-74
2023/11/02 08:18:00;;;;;;;1.00;0.00;;;11.70;99.90;;;;;;4978303;28;20034;-74
2023/11/02 08:20:28;;;;;;;0.80;0.00;;;11.70;99.90;;;;;;4978294;28;20510;-74
2023/11/02 08:22:53;;;;;;;1.58;0.00;;;12.50;99.90;;;;;;4978442;28;20026;-74
2023/11/02 08:25:19;;;;;;;2.20;0.05;;;11.70;99.90;;;;;;4978729;28;20022;-73
2023/11/02 08:27:46;;;;;;;0.98;0.43;;;11.80;99.90;;;;;;4979062;28;20030;-73
2023/11/02 08:30:12;;;;;;;0.88;0.00;;;11.80;99.90;;;;;;4978488;28;20019;-73
2023/11/02 08:32:38;;;;;;;0.75;0.38;;;11.90;99.90;;;;;;4978682;28;20122;-74
2023/11/02 08:35:03;;;;;;;0.43;0.00;;;11.90;99.90;;;;;;4977976;28;20023;-74
2023/11/02 08:37:29;;;;;;;0.08;0.00;;;12.00;99.90;;;;;;4978472;28;20022;-73
2023/11/02 08:39:55;;;;;;;1.92;0.00;;;12.10;99.90;;;;;;4977715;28;20023;-74
2023/11/02 08:42:21;;;;;;;0.10;0.00;;;12.20;99.90;;;;;;4978106;28;20031;-73
2023/11/02 08:44:47;;;;;;;6.40;0.30;;;12.40;99.90;;;;;;4960868;28;20023;-73
2023/11/02 08:47:13;;;;;;;5.07;0.00;;;12.70;99.90;;;;;;4978438;28;20091;-73
2023/11/02 08:49:40;;;;;;;0.77;0.10;;;13.00;99.90;;;;;;4978868;28;20035;-73
2023/11/02 08:52:05;;;;;;;1.85;0.00;;;13.60;99.90;;;;;;4960684;28;20022;-73
2023/11/02 08:54:31;;;;;;;1.65;0.15;;;12.90;99.90;;;;;;4978066;28;20488;-75
2023/11/02 08:56:58;;;;;;;0.52;0.00;;;13.00;99.90;;;;;;4975989;28;20049;-76
2023/11/02 08:59:23;;;;;;;1.80;0.00;;;13.10;99.90;;;;;;4959796;28;20027;-74
2023/11/02 09:01:51;;;;;;;4.28;0.10;;;13.30;99.90;;;;;;4977148;28;20534;-74
2023/11/02 09:04:16;;;;;;;1.70;0.00;;;13.30;99.90;;;;;;4976970;28;20045;-74
2023/11/02 09:06:43;;;;;;;6.97;0.28;;;13.40;99.90;;;;;;4976952;28;20019;-74
2023/11/02 09:09:11;;;;;;;7.28;0.10;;;13.40;99.90;;;;;;4977002;28;20019;-74
2023/11/02 09:11:36;;;;;;;1.55;0.00;;;13.50;99.90;;;;;;4959757;28;20022;-74
2023/11/02 09:14:03;;;;;;;3.47;0.00;;;13.50;99.90;;;;;;4976480;28;20049;-74
2023/11/02 09:16:29;;;;;;;3.65;0.43;;;13.50;99.90;;;;;;4976742;28;20098;-74
2023/11/02 09:18:58;;;;;;;2.92;0.15;;;13.50;99.90;;;;;;4959480;28;20501;-73
2023/11/02 09:21:24;;;;;;;10.23;0.55;;;13.50;99.90;;;;;;4977284;28;20030;-73
2023/11/02 09:23:49;;;;;;;1.65;0.00;;;13.70;99.90;;;;;;4977368;28;20015;-75
2023/11/02 09:26:15;;;;;;;6.80;0.28;;;13.50;99.90;;;;;;4959452;28;20487;-73
2023/11/02 09:28:40;;;;;;;2.55;0.45;;;13.50;99.90;;;;;;4977152;28;20026;-73
2023/11/02 09:31:12;;;;;;;5.15;0.30;;;14.50;99.90;;;;;;4975379;28;20038;-73
2023/11/02 09:33:38;;;;;;;5.25;0.20;;;14.30;99.90;;;;;;4977219;28;20054;-73
2023/11/02 09:36:05;;;;;;;6.07;0.00;;;14.50;99.90;;;;;;4959151;28;20023;-74
2023/11/02 09:38:31;;;;;;;2.25;0.00;;;13.50;99.90;;;;;;4976361;28;20398;-74
2023/11/02 09:40:57;;;;;;;5.38;0.43;;;13.50;99.90;;;;;;4976359;28;20038;-73
2023/11/02 09:43:24;;;;;;;5.70;0.75;;;13.60;99.90;;;;;;4976332;28;20023;-73
2023/11/02 09:45:50;;;;;;;5.25;0.50;;;13.70;99.90;;;;;;4976382;28;20479;-74
2023/11/02 09:48:18;;;;;;;4.90;0.05;;;13.70;99.90;;;;;;4976764;28;20031;-74
2023/11/02 09:50:44;;;;;;;5.22;0.00;;;13.80;99.90;;;;;;4976947;28;20023;-74
2023/11/02 09:53:10;;;;;;;3.00;0.08;;;13.80;99.90;;;;;;4976259;28;20405;-73
2023/11/02 09:55:40;;;;;;;4.53;0.45;;;13.80;99.90;;;;;;4958863;28;20026;-73
2023/11/02 09:58:07;;;;;;;1.80;0.15;;;13.90;99.90;;;;;;4975972;28;20066;-73
2023/11/02 10:00:33;;;;;;;3.28;0.00;;;14.00;99.90;;;;;;4958723;28;20054;-73
2023/11/02 10:02:59;;;;;;;3.72;0.00;;;14.10;99.90;;;;;;4976057;28;20027;-73
2023/11/02 10:05:24;;;;;;;2.53;0.20;;;14.10;99.90;;;;;;4958657;28;20030;-75
2023/11/02 10:07:50;;;;;;;2.15;0.03;;;14.10;99.90;;;;;;4976148;28;20035;-73
2023/11/02 10:10:17;;;;;;;1.35;0.00;;;14.00;99.90;;;;;;4975991;28;20050;-73
2023/11/02 10:12:43;;;;;;;2.22;0.00;;;14.00;99.90;;;;;;4958361;28;20133;-73
2023/11/02 10:15:11;;;;;;;2.03;0.03;;;13.90;99.90;;;;;;4975211;28;20046;-74
2023/11/02 10:17:40;;;;;;;2.33;0.57;;;13.90;99.90;;;;;;4958478;28;20455;-74
2023/11/02 10:20:13;;;;;;;5.15;0.00;;;13.90;99.90;;;;;;4975680;28;20035;-73
2023/11/02 10:22:44;;;;;;;2.33;0.10;;;13.90;99.90;;;;;;4975764;28;20506;-73
2023/11/02 10:25:16;;;;;;;3.38;0.00;;;14.00;99.90;;;;;;4958488;28;20479;-73
2023/11/02 10:27:43;;;;;;;1.88;0.00;;;14.00;99.90;;;;;;4975762;28;20015;-76
2023/11/02 10:30:10;;;;;;;2.92;0.00;;;14.00;99.90;;;;;;4975884;28;20050;-74
2023/11/02 10:32:37;;;;;;;3.90;0.17;;;13.90;99.90;;;;;;4974531;28;20045;-74
2023/11/02 10:35:02;;;;;;;4.70;0.00;;;13.90;99.90;;;;;;4975790;28;20390;-74
2023/11/02 10:37:30;;;;;;;2.58;0.10;;;13.90;99.90;;;;;;4958127;28;20081;-74
2023/11/02 10:39:56;;;;;;;2.65;0.38;;;14.00;99.90;;;;;;4975257;28;20030;-75
2023/11/02 10:42:24;;;;;;;2.38;0.10;;;14.10;99.90;;;;;;4975286;28;20022;-75
2023/11/02 10:44:50;;;;;;;4.63;0.53;;;14.20;99.90;;;;;;4975324;28;20026;-74
2023/11/02 10:47:18;;;;;;;2.35;0.22;;;14.30;99.90;;;;;;4975132;28;20661;-77
2023/11/02 10:49:44;;;;;;;4.43;0.10;;;14.30;99.90;;;;;;4975204;28;20441;-75
2023/11/02 10:52:17;;;;;;;2.78;0.00;;;14.20;99.90;;;;;;4975184;28;20053;-74
2023/11/02 10:55:08;;;;;;;4.70;0.05;;;14.10;99.90;;;;;;4975683;28;20050;-74
2023/11/02 10:57:35;;;;;;;1.98;0.00;;;14.00;99.90;;;;;;4957892;28;20490;-74
2023/11/02 11:00:04;;;;;;;1.48;0.05;;;13.70;99.90;;;;;;4975437;28;20031;-74
2023/11/02 11:02:31;;;;;;;2.90;0.08;;;13.50;99.90;;;;;;4975345;28;20038;-74
2023/11/02 11:04:58;;;;;;;4.80;0.00;;;13.20;99.90;;;;;;4975970;28;20047;-74
2023/11/02 11:07:24;;;;;;;1.58;0.20;;;13.00;99.90;;;;;;4975452;28;20023;-74
2023/11/02 11:09:51;;;;;;;5.05;0.68;;;13.50;99.90;;;;;;4975362;28;20095;-74
2023/11/02 11:12:20;;;;;;;6.95;0.40;;;12.90;99.90;;;;;;4974934;28;20057;-74
2023/11/02 11:14:47;;;;;;;1.70;0.00;;;12.80;99.90;;;;;;4975245;28;20023;-74
2023/11/02 11:17:13;;;;;;;1.20;0.10;;;12.80;99.90;;;;;;4957784;28;20035;-74
2023/11/02 11:19:39;;;;;;;2.20;0.10;;;13.00;99.90;;;;;;4974907;28;20541;-74
2023/11/02 11:22:12;;;;;;;3.78;0.00;;;12.80;99.90;;;;;;4957856;28;20449;-74
2023/11/02 11:24:38;;;;;;;0.60;0.00;;;12.90;99.90;;;;;;4975786;28;20033;-74
2023/11/02 11:27:04;;;;;;;4.78;1.23;;;12.90;99.90;;;;;;4974065;28;20027;-75
2023/11/02 11:29:34;;;;;;;3.53;0.22;;;;;;;;;;4957509;28;20466;-74
2023/11/02 11:32:00;;;;;;;3.28;0.00;;;12.90;99.90;;;;;;4957482;28;20034;-75
2023/11/02 11:34:26;;;;;;;4.50;0.20;;;13.10;99.90;;;;;;4974697;28;20483;-75
2023/11/02 11:37:31;;;;;;;5.57;0.57;;;13.10;99.90;;;;;;4957348;28;20034;-76
2023/11/02 11:39:56;;;;;;;2.75;0.00;;;13.10;99.90;;;;;;4974526;28;20031;-76
2023/11/02 11:43:01;;;;;;;6.95;0.00;;;13.00;99.90;;;;;;4975164;28;20419;-75
2023/11/02 11:45:32;;;;;;;9.90;0.22;;;12.80;99.90;;;;;;4957480;28;20106;-76
2023/11/02 11:47:59;;;;;;;7.28;0.98;;;12.50;99.90;;;;;;4957144;28;20040;-75
2023/11/02 11:50:52;;;;;;;3.92;0.77;;;12.30;99.90;;;;;;4957117;28;20117;-75
2023/11/02 11:53:20;;;;;;;4.03;0.30;;;12.10;99.90;;;;;;4955493;28;20043;-76
2023/11/02 11:55:50;;;;;;;6.20;0.00;;;12.80;99.90;;;;;;4974969;28;20030;-75
2023/11/02 11:58:19;;;;;;;4.82;0.00;;;12.00;99.90;;;;;;4956897;28;20023;-75
2023/11/02 12:00:53;;;;;;;5.13;0.00;;;11.90;99.90;;;;;;4974411;28;20029;-76
2023/11/02 12:03:39;;;;;;;1.77;0.05;;;11.90;99.90;;;;;;4974429;28;20027;-76
2023/11/02 12:06:12;;;;;;;2.35;0.00;;;12.00;99.90;;;;;;4956985;28;20027;-75
2023/11/02 12:08:51;;;;;;;4.07;0.43;;;12.00;99.90;;;;;;4974801;28;20499;-75
2023/11/02 12:11:24;;;;;;;3.08;0.00;;;11.90;99.90;;;;;;4974645;28;20027;-75
2023/11/02 12:13:58;;;;;;;5.82;0.28;;;12.20;99.90;;;;;;4957041;28;20039;-75
2023/11/02 12:16:34;;;;;;;7.25;1.25;;;11.80;99.90;;;;;;4974621;28;20026;-76
2023/11/02 12:19:01;;;;;;;4.88;0.00;;;11.80;99.90;;;;;;4957160;28;20035;-75
2023/11/02 12:21:27;;;;;;;5.72;0.32;;;11.80;99.90;;;;;;4974580;28;20022;-76
2023/11/02 12:23:54;;;;;;;2.03;0.00;;;11.90;99.90;;;;;;4974285;28;20027;-76
2023/11/02 12:26:21;;;;;;;2.92;0.17;;;11.90;99.90;;;;;;4956807;28;20073;-75
2023/11/02 12:28:56;;;;;;;8.68;0.00;;;11.90;99.90;;;;;;4956982;28;20029;-75
2023/11/02 12:31:33;;;;;;;0.98;0.00;;;11.80;99.90;;;;;;4957159;28;20490;-75
2023/11/02 12:34:04;;;;;;;1.95;0.00;;;11.70;99.90;;;;;;4974292;28;20034;-75
2023/11/02 12:36:30;;;;;;;1.75;0.00;;;11.80;99.90;;;;;;4974309;28;20050;-75
2023/11/02 12:38:56;;;;;;;10.80;0.47;;;12.10;99.90;;;;;;4959354;28;20475;-75
2023/11/02 12:41:26;;;;;;;1.48;0.03;;;11.90;99.90;;;;;;4960397;28;20034;-75
2023/11/02 12:44:05;;;;;;;1.25;0.00;;;11.80;99.90;;;;;;4977857;28;20442;-75
2023/11/02 12:46:32;;;;;;;5.18;0.63;;;11.90;99.90;;;;;;4978298;28;20085;-75
2023/11/02 12:49:22;;;;;;;0.90;0.10;;;11.90;99.90;;;;;;4960327;28;20417;-74
2023/11/02 12:51:54;;;;;;;5.60;0.17;;;11.90;99.90;;;;;;4977560;28;20031;-78
2023/11/02 12:54:21;;;;;;;2.00;0.00;;;11.90;99.90;;;;;;4977589;28;20022;-77
2023/11/02 12:56:50;;;;;;;10.93;0.60;;;12.00;99.90;;;;;;4977386;28;20050;-77
2023/11/02 12:59:16;;;;;;;;;;;12.60;99.90;;;;;;4960378;28;20561;-77
2023/11/02 13:01:59;;;;;;;3.97;0.00;;;14.40;99.90;;;;;;4960129;28;19906;-77
2023/11/02 13:04:44;;;;;;;0.60;0.10;;;12.00;99.90;;;;;;4960108;28;20118;-77
2023/11/02 13:07:24;;;;;;;6.72;0.40;;;12.00;99.90;;;;;;4959826;28;20030;-77
2023/11/02 13:10:14;;;;;;;4.45;0.00;;;12.00;99.90;;;;;;4976087;28;20033;-77
2023/11/02 13:12:41;;;;;;;2.42;0.00;;;12.00;99.90;;;;;;4959788;28;20039;-77